AAA812 YPPH-YGEL
Flight info
| Callsign | AAA812 |
|---|---|
| Flight time | 0h 49m |
| Altitude | 22000 |
| Route | OTLED DCT ONGAR DCT GW2ND |
| Aircraft | F28/M-SDFIRWY/H |
Departure
| Time | 2026-05-04 13:36 |
|---|---|
| Airport | Perth International Airport (YPPH) |
Arrival
| Time | 2026-05-04 14:25 |
|---|---|
| Airport | Geraldton Airport (YGEL) |
| Time | Latitude | Longitude | Altitude | Speed | Heading |
|---|---|---|---|---|---|
| 2026-05-04 13:00 | -31.94423 | 115.96931 | 63 ft | 0 kts | 193° |
| 2026-05-04 13:24 | -31.94419 | 115.96933 | 30 ft | 2 kts | 193° |
| 2026-05-04 13:24 | -31.94407 | 115.96936 | 59 ft | 2 kts | 193° |
| 2026-05-04 13:24 | -31.94394 | 115.96939 | 59 ft | 2 kts | 193° |
| 2026-05-04 13:25 | -31.94373 | 115.96954 | 62 ft | 2 kts | 238° |
| 2026-05-04 13:25 | -31.94370 | 115.96968 | 63 ft | 2 kts | 265° |
| 2026-05-04 13:25 | -31.94369 | 115.96977 | 63 ft | 0 kts | 265° |
| 2026-05-04 13:29 | -31.94370 | 115.96969 | 63 ft | 4 kts | 265° |
| 2026-05-04 13:29 | -31.94363 | 115.96912 | 63 ft | 10 kts | 281° |
| 2026-05-04 13:29 | -31.94344 | 115.96815 | 58 ft | 11 kts | 282° |
| 2026-05-04 13:29 | -31.94311 | 115.96786 | 63 ft | 5 kts | 353° |
| 2026-05-04 13:30 | -31.94247 | 115.96794 | 57 ft | 15 kts | 13° |
| 2026-05-04 13:30 | -31.94116 | 115.96833 | 61 ft | 22 kts | 13° |
| 2026-05-04 13:30 | -31.93958 | 115.96879 | 59 ft | 24 kts | 14° |
| 2026-05-04 13:30 | -31.93786 | 115.96929 | 55 ft | 27 kts | 14° |
| 2026-05-04 13:31 | -31.93705 | 115.96952 | 55 ft | 0 kts | 13° |
| 2026-05-04 13:31 | -31.93698 | 115.96954 | 55 ft | 6 kts | 12° |
| 2026-05-04 13:31 | -31.93602 | 115.96981 | 50 ft | 22 kts | 14° |
| 2026-05-04 13:31 | -31.93416 | 115.97035 | 53 ft | 33 kts | 12° |
| 2026-05-04 13:32 | -31.93181 | 115.97105 | 47 ft | 34 kts | 14° |
| 2026-05-04 13:32 | -31.93005 | 115.97156 | 51 ft | 17 kts | 16° |
| 2026-05-04 13:32 | -31.92938 | 115.97116 | 50 ft | 8 kts | 281° |
| 2026-05-04 13:32 | -31.92931 | 115.97079 | 50 ft | 0 kts | 283° |
| 2026-05-04 13:33 | -31.92929 | 115.97070 | 50 ft | 5 kts | 284° |
| 2026-05-04 13:34 | -31.92916 | 115.97010 | 50 ft | 10 kts | 284° |
| 2026-05-04 13:34 | -31.92898 | 115.96922 | 50 ft | 12 kts | 284° |
| 2026-05-04 13:34 | -31.92888 | 115.96843 | 50 ft | 4 kts | 234° |
| 2026-05-04 13:34 | -31.92911 | 115.96829 | 50 ft | 4 kts | 188° |
| 2026-05-04 13:35 | -31.93031 | 115.96798 | 47 ft | 47 kts | 194° |
| 2026-05-04 13:35 | -31.94392 | 115.96396 | 59 ft | 142 kts | 194° |
| 2026-05-04 13:35 | -31.95376 | 115.96075 | 360 ft | 158 kts | 192° |
| 2026-05-04 13:36 | -31.96518 | 115.95751 | 735 ft | 180 kts | 192° |
| 2026-05-04 13:36 | -31.97827 | 115.95379 | 1002 ft | 209 kts | 191° |
| 2026-05-04 13:36 | -31.99337 | 115.94956 | 1323 ft | 234 kts | 190° |
| 2026-05-04 13:36 | -32.00916 | 115.94322 | 1633 ft | 252 kts | 210° |
| 2026-05-04 13:37 | -32.02130 | 115.92808 | 1948 ft | 261 kts | 240° |
| 2026-05-04 13:37 | -32.02577 | 115.90744 | 2229 ft | 263 kts | 270° |
| 2026-05-04 13:37 | -32.02441 | 115.88589 | 2537 ft | 264 kts | 278° |
| 2026-05-04 13:37 | -32.02263 | 115.87170 | 2719 ft | 264 kts | 280° |
| 2026-05-04 13:38 | -32.01833 | 115.84313 | 3034 ft | 265 kts | 281° |
| 2026-05-04 13:38 | -32.01497 | 115.82178 | 3293 ft | 265 kts | 281° |
| 2026-05-04 13:38 | -32.01168 | 115.80047 | 3496 ft | 265 kts | 281° |
| 2026-05-04 13:38 | -32.00853 | 115.77910 | 3661 ft | 266 kts | 281° |
| 2026-05-04 13:39 | -32.00543 | 115.75776 | 4412 ft | 262 kts | 280° |
| 2026-05-04 13:39 | -32.00252 | 115.73652 | 5084 ft | 263 kts | 279° |
| 2026-05-04 13:39 | -31.99970 | 115.71515 | 5652 ft | 266 kts | 279° |
| 2026-05-04 13:39 | -31.99698 | 115.69355 | 6225 ft | 268 kts | 276° |
| 2026-05-04 13:40 | -31.99834 | 115.67148 | 6771 ft | 273 kts | 260° |
| 2026-05-04 13:40 | -32.00227 | 115.64953 | 7342 ft | 275 kts | 256° |
| 2026-05-04 13:40 | -32.00705 | 115.62759 | 7527 ft | 281 kts | 255° |
| 2026-05-04 13:40 | -32.01239 | 115.60540 | 7860 ft | 278 kts | 253° |
| 2026-05-04 13:41 | -32.01781 | 115.58358 | 8109 ft | 280 kts | 253° |
| 2026-05-04 13:41 | -32.02333 | 115.56161 | 8412 ft | 281 kts | 253° |
| 2026-05-04 13:41 | -32.02883 | 115.53934 | 8844 ft | 281 kts | 253° |
| 2026-05-04 13:42 | -32.04034 | 115.49116 | 9126 ft | 326 kts | 253° |
| 2026-05-04 13:42 | -32.04660 | 115.46469 | 9357 ft | 344 kts | 254° |
| 2026-05-04 13:42 | -32.05313 | 115.43682 | 9622 ft | 361 kts | 254° |
| 2026-05-04 13:42 | -32.05976 | 115.40812 | 9909 ft | 364 kts | 255° |
| 2026-05-04 13:43 | -32.06201 | 115.37849 | 10168 ft | 366 kts | 276° |
| 2026-05-04 13:43 | -32.05496 | 115.34975 | 10414 ft | 368 kts | 297° |
| 2026-05-04 13:43 | -32.03961 | 115.32583 | 10654 ft | 367 kts | 319° |
| 2026-05-04 13:43 | -32.01850 | 115.30917 | 10904 ft | 366 kts | 334° |
| 2026-05-04 13:44 | -31.99545 | 115.29651 | 11158 ft | 366 kts | 339° |
| 2026-05-04 13:44 | -31.97166 | 115.28554 | 11406 ft | 368 kts | 341° |
| 2026-05-04 13:44 | -31.94750 | 115.27556 | 11647 ft | 369 kts | 343° |
| 2026-05-04 13:44 | -31.92294 | 115.26654 | 11888 ft | 370 kts | 345° |
| 2026-05-04 13:45 | -31.89821 | 115.25792 | 12133 ft | 371 kts | 345° |
| 2026-05-04 13:45 | -31.87339 | 115.24930 | 12377 ft | 373 kts | 346° |
| 2026-05-04 13:45 | -31.84847 | 115.24053 | 12626 ft | 374 kts | 345° |
| 2026-05-04 13:45 | -31.82381 | 115.23165 | 12873 ft | 376 kts | 345° |
| 2026-05-04 13:46 | -31.79880 | 115.22253 | 13125 ft | 377 kts | 345° |
| 2026-05-04 13:46 | -31.77377 | 115.21336 | 13371 ft | 377 kts | 345° |
| 2026-05-04 13:46 | -31.74797 | 115.20777 | 13620 ft | 376 kts | 356° |
| 2026-05-04 13:46 | -31.72183 | 115.20662 | 13880 ft | 375 kts | 3° |
| 2026-05-04 13:47 | -31.69573 | 115.20785 | 14140 ft | 375 kts | 7° |
| 2026-05-04 13:47 | -31.66967 | 115.21066 | 14291 ft | 377 kts | 11° |
| 2026-05-04 13:47 | -31.64428 | 115.21806 | 14498 ft | 375 kts | 21° |
| 2026-05-04 13:47 | -31.62010 | 115.22960 | 14711 ft | 375 kts | 27° |
| 2026-05-04 13:48 | -31.60443 | 115.23821 | 14855 ft | 375 kts | 28° |
| 2026-05-04 13:48 | -31.57310 | 115.25668 | 15138 ft | 376 kts | 30° |
| 2026-05-04 13:48 | -31.55011 | 115.27074 | 15355 ft | 377 kts | 29° |
| 2026-05-04 13:48 | -31.53439 | 115.28043 | 15498 ft | 378 kts | 30° |
| 2026-05-04 13:49 | -31.51106 | 115.29485 | 15719 ft | 379 kts | 30° |
| 2026-05-04 13:49 | -31.48798 | 115.30897 | 15937 ft | 380 kts | 29° |
| 2026-05-04 13:49 | -31.46445 | 115.32316 | 16152 ft | 381 kts | 30° |
| 2026-05-04 13:49 | -31.43278 | 115.34211 | 16450 ft | 383 kts | 28° |
| 2026-05-04 13:50 | -31.41708 | 115.35153 | 16595 ft | 384 kts | 29° |
| 2026-05-04 13:50 | -31.39327 | 115.36584 | 16817 ft | 385 kts | 29° |
| 2026-05-04 13:50 | -31.36939 | 115.38017 | 17042 ft | 386 kts | 28° |
| 2026-05-04 13:50 | -31.34549 | 115.39454 | 17267 ft | 387 kts | 29° |
| 2026-05-04 13:51 | -31.32146 | 115.40894 | 17496 ft | 388 kts | 29° |
| 2026-05-04 13:51 | -31.29734 | 115.42337 | 17728 ft | 389 kts | 28° |
| 2026-05-04 13:51 | -31.27317 | 115.43776 | 17967 ft | 391 kts | 29° |
| 2026-05-04 13:51 | -31.24891 | 115.45217 | 18207 ft | 392 kts | 28° |
| 2026-05-04 13:52 | -31.20023 | 115.48108 | 18672 ft | 394 kts | 28° |
| 2026-05-04 13:52 | -31.17581 | 115.49569 | 18878 ft | 395 kts | 28° |
| 2026-05-04 13:52 | -31.15133 | 115.51029 | 19087 ft | 396 kts | 28° |
| 2026-05-04 13:53 | -31.12677 | 115.52493 | 19293 ft | 397 kts | 28° |
| 2026-05-04 13:53 | -31.10216 | 115.53956 | 19505 ft | 398 kts | 29° |
| 2026-05-04 13:53 | -31.07751 | 115.55428 | 19715 ft | 399 kts | 29° |
| 2026-05-04 13:54 | -31.02797 | 115.58375 | 20138 ft | 400 kts | 28° |
| 2026-05-04 13:54 | -31.00313 | 115.59847 | 20359 ft | 401 kts | 28° |
| 2026-05-04 13:54 | -30.95351 | 115.62779 | 20794 ft | 403 kts | 28° |
| 2026-05-04 13:55 | -30.92848 | 115.64256 | 21022 ft | 404 kts | 28° |
| 2026-05-04 13:55 | -30.87819 | 115.67206 | 21462 ft | 406 kts | 25° |
| 2026-05-04 13:55 | -30.85101 | 115.68076 | 21699 ft | 408 kts | 7° |
| 2026-05-04 13:56 | -30.82262 | 115.68103 | 21926 ft | 409 kts | 354° |
| 2026-05-04 13:56 | -30.79463 | 115.67477 | 22168 ft | 410 kts | 344° |
| 2026-05-04 13:56 | -30.74084 | 115.65105 | 22335 ft | 418 kts | 335° |
| 2026-05-04 13:57 | -30.71476 | 115.63670 | 22331 ft | 410 kts | 334° |
| 2026-05-04 13:57 | -30.68935 | 115.62211 | 22327 ft | 404 kts | 333° |
| 2026-05-04 13:58 | -30.61562 | 115.57935 | 22317 ft | 387 kts | 333° |
| 2026-05-04 13:58 | -30.56801 | 115.55233 | 22312 ft | 379 kts | 334° |
| 2026-05-04 13:58 | -30.54438 | 115.53897 | 22311 ft | 375 kts | 334° |
| 2026-05-04 13:59 | -30.52099 | 115.52577 | 22311 ft | 372 kts | 334° |
| 2026-05-04 13:59 | -30.49775 | 115.51274 | 22309 ft | 369 kts | 334° |
| 2026-05-04 13:59 | -30.45173 | 115.48738 | 22309 ft | 364 kts | 335° |
| 2026-05-04 14:00 | -30.42896 | 115.47487 | 22308 ft | 361 kts | 334° |
| 2026-05-04 14:00 | -30.38401 | 115.44960 | 22311 ft | 357 kts | 334° |
| 2026-05-04 14:00 | -30.36167 | 115.43712 | 22311 ft | 355 kts | 334° |
| 2026-05-04 14:01 | -30.33943 | 115.42486 | 22310 ft | 354 kts | 334° |
| 2026-05-04 14:01 | -30.31728 | 115.41260 | 22305 ft | 352 kts | 334° |
| 2026-05-04 14:01 | -30.27334 | 115.38799 | 22303 ft | 349 kts | 335° |
| 2026-05-04 14:02 | -30.25149 | 115.37584 | 22303 ft | 348 kts | 335° |
| 2026-05-04 14:02 | -30.22968 | 115.36376 | 22301 ft | 347 kts | 335° |
| 2026-05-04 14:02 | -30.20794 | 115.35175 | 22299 ft | 346 kts | 335° |
| 2026-05-04 14:02 | -30.18627 | 115.33976 | 22300 ft | 345 kts | 335° |
| 2026-05-04 14:03 | -30.16467 | 115.32784 | 22300 ft | 344 kts | 335° |
| 2026-05-04 14:03 | -30.14316 | 115.31587 | 22294 ft | 343 kts | 334° |
| 2026-05-04 14:03 | -30.12173 | 115.30394 | 22296 ft | 342 kts | 335° |
| 2026-05-04 14:03 | -30.10033 | 115.29199 | 22296 ft | 341 kts | 334° |
| 2026-05-04 14:04 | -30.05770 | 115.26821 | 22295 ft | 339 kts | 335° |
| 2026-05-04 14:04 | -30.03671 | 115.25652 | 22293 ft | 339 kts | 335° |
| 2026-05-04 14:04 | -30.01545 | 115.24475 | 22293 ft | 338 kts | 335° |
| 2026-05-04 14:05 | -29.97308 | 115.22144 | 22294 ft | 337 kts | 335° |
| 2026-05-04 14:05 | -29.95194 | 115.20978 | 22292 ft | 336 kts | 335° |
| 2026-05-04 14:05 | -29.93084 | 115.19818 | 22290 ft | 336 kts | 335° |
| 2026-05-04 14:06 | -29.90977 | 115.18653 | 22292 ft | 336 kts | 335° |
| 2026-05-04 14:06 | -29.88862 | 115.17480 | 22291 ft | 338 kts | 335° |
| 2026-05-04 14:06 | -29.86732 | 115.16306 | 22288 ft | 340 kts | 335° |
| 2026-05-04 14:06 | -29.84593 | 115.15125 | 22289 ft | 341 kts | 335° |
| 2026-05-04 14:07 | -29.82446 | 115.13943 | 22288 ft | 343 kts | 334° |
| 2026-05-04 14:07 | -29.80285 | 115.12750 | 22288 ft | 348 kts | 335° |
| 2026-05-04 14:07 | -29.78068 | 115.11527 | 22293 ft | 359 kts | 335° |
| 2026-05-04 14:07 | -29.75786 | 115.10267 | 22293 ft | 368 kts | 335° |
| 2026-05-04 14:08 | -29.73446 | 115.08976 | 22296 ft | 378 kts | 335° |
| 2026-05-04 14:08 | -29.71046 | 115.07658 | 22299 ft | 386 kts | 335° |
| 2026-05-04 14:08 | -29.68627 | 115.06329 | 22299 ft | 394 kts | 334° |
| 2026-05-04 14:08 | -29.66129 | 115.04953 | 22298 ft | 401 kts | 335° |
| 2026-05-04 14:09 | -29.61009 | 115.02147 | 22293 ft | 414 kts | 335° |
| 2026-05-04 14:09 | -29.58389 | 115.00711 | 22286 ft | 419 kts | 335° |
| 2026-05-04 14:10 | -29.53062 | 114.97794 | 22280 ft | 428 kts | 335° |
| 2026-05-04 14:10 | -29.50357 | 114.96320 | 22279 ft | 432 kts | 335° |
| 2026-05-04 14:10 | -29.47632 | 114.94828 | 22275 ft | 435 kts | 335° |
| 2026-05-04 14:10 | -29.44887 | 114.93332 | 22274 ft | 438 kts | 335° |
| 2026-05-04 14:11 | -29.42121 | 114.91824 | 22272 ft | 441 kts | 335° |
| 2026-05-04 14:11 | -29.36579 | 114.88804 | 22014 ft | 446 kts | 335° |
| 2026-05-04 14:11 | -29.33771 | 114.87276 | 21561 ft | 446 kts | 335° |
| 2026-05-04 14:12 | -29.30969 | 114.85752 | 21115 ft | 446 kts | 335° |
| 2026-05-04 14:12 | -29.28180 | 114.84243 | 20669 ft | 441 kts | 335° |
| 2026-05-04 14:12 | -29.22693 | 114.81355 | 19797 ft | 424 kts | 342° |
| 2026-05-04 14:13 | -29.19872 | 114.80568 | 19375 ft | 412 kts | 354° |
| 2026-05-04 14:13 | -29.17054 | 114.80332 | 18959 ft | 400 kts | 1° |
| 2026-05-04 14:13 | -29.14310 | 114.80406 | 18539 ft | 388 kts | 5° |
| 2026-05-04 14:13 | -29.11656 | 114.80642 | 18064 ft | 377 kts | 7° |
| 2026-05-04 14:14 | -29.09081 | 114.80945 | 17596 ft | 366 kts | 8° |
| 2026-05-04 14:14 | -29.04127 | 114.81585 | 16671 ft | 351 kts | 8° |
| 2026-05-04 14:14 | -29.01719 | 114.81893 | 16217 ft | 345 kts | 8° |
| 2026-05-04 14:15 | -28.97012 | 114.82486 | 15336 ft | 335 kts | 8° |
| 2026-05-04 14:15 | -28.92445 | 114.83016 | 14492 ft | 328 kts | 7° |
| 2026-05-04 14:16 | -28.87941 | 114.83553 | 13607 ft | 323 kts | 8° |
| 2026-05-04 14:16 | -28.85715 | 114.83818 | 13142 ft | 321 kts | 8° |
| 2026-05-04 14:17 | -28.81301 | 114.84336 | 12230 ft | 317 kts | 7° |
| 2026-05-04 14:17 | -28.79111 | 114.84581 | 11788 ft | 315 kts | 8° |
| 2026-05-04 14:17 | -28.74765 | 114.85078 | 10825 ft | 316 kts | 8° |
| 2026-05-04 14:18 | -28.72586 | 114.85324 | 10249 ft | 321 kts | 8° |
| 2026-05-04 14:18 | -28.68092 | 114.85832 | 9011 ft | 327 kts | 8° |
| 2026-05-04 14:19 | -28.63641 | 114.85204 | 7789 ft | 326 kts | 333° |
| 2026-05-04 14:19 | -28.61960 | 114.83529 | 7289 ft | 317 kts | 308° |
| 2026-05-04 14:19 | -28.61079 | 114.81316 | 6938 ft | 299 kts | 283° |
| 2026-05-04 14:19 | -28.61104 | 114.79088 | 6578 ft | 274 kts | 255° |
| 2026-05-04 14:20 | -28.61924 | 114.77325 | 6209 ft | 235 kts | 224° |
| 2026-05-04 14:20 | -28.63183 | 114.76430 | 5833 ft | 199 kts | 196° |
| 2026-05-04 14:20 | -28.64439 | 114.76004 | 5376 ft | 180 kts | 190° |
| 2026-05-04 14:21 | -28.66709 | 114.75375 | 4148 ft | 155 kts | 188° |
| 2026-05-04 14:21 | -28.67757 | 114.75056 | 3526 ft | 157 kts | 187° |
| 2026-05-04 14:21 | -28.68782 | 114.74713 | 2965 ft | 152 kts | 187° |
| 2026-05-04 14:21 | -28.69806 | 114.74362 | 2404 ft | 155 kts | 188° |
| 2026-05-04 14:22 | -28.70829 | 114.73982 | 1949 ft | 154 kts | 189° |
| 2026-05-04 14:22 | -28.71857 | 114.73599 | 1575 ft | 154 kts | 191° |
| 2026-05-04 14:22 | -28.72827 | 114.73212 | 1305 ft | 140 kts | 193° |
| 2026-05-04 14:22 | -28.73714 | 114.72853 | 1089 ft | 130 kts | 194° |
| 2026-05-04 14:23 | -28.75456 | 114.72273 | 799 ft | 133 kts | 194° |
| 2026-05-04 14:23 | -28.76337 | 114.71926 | 709 ft | 134 kts | 198° |
| 2026-05-04 14:23 | -28.77222 | 114.71538 | 525 ft | 137 kts | 192° |
| 2026-05-04 14:24 | -28.78116 | 114.71219 | 354 ft | 131 kts | 193° |
| 2026-05-04 14:24 | -28.78920 | 114.70910 | 144 ft | 112 kts | 193° |
| 2026-05-04 14:24 | -28.79565 | 114.70678 | 115 ft | 81 kts | 199° |
| 2026-05-04 14:24 | -28.80015 | 114.70503 | 114 ft | 51 kts | 201° |
| 2026-05-04 14:25 | -28.80255 | 114.70411 | 113 ft | 31 kts | 195° |
| 2026-05-04 14:25 | -28.80477 | 114.70319 | 115 ft | 0 kts | 148° |
| 2026-05-04 14:25 | -28.80478 | 114.70323 | 115 ft | 0 kts | 95° |
| 2026-05-04 14:26 | -28.80464 | 114.70334 | 115 ft | 8 kts | 23° |
| 2026-05-04 14:26 | -28.80350 | 114.70378 | 113 ft | 27 kts | 18° |
| 2026-05-04 14:26 | -28.80128 | 114.70461 | 114 ft | 37 kts | 17° |
| 2026-05-04 14:26 | -28.79865 | 114.70561 | 115 ft | 37 kts | 19° |
| 2026-05-04 14:27 | -28.79664 | 114.70635 | 113 ft | 18 kts | 10° |
| 2026-05-04 14:27 | -28.79619 | 114.70573 | 113 ft | 11 kts | 285° |
| 2026-05-04 14:27 | -28.79606 | 114.70525 | 113 ft | 4 kts | 288° |
| 2026-05-04 14:27 | -28.79586 | 114.70461 | 112 ft | 13 kts | 288° |
| 2026-05-04 14:28 | -28.79571 | 114.70385 | 113 ft | 10 kts | 252° |
| 2026-05-04 14:28 | -28.79636 | 114.70345 | 113 ft | 10 kts | 198° |
| 2026-05-04 14:28 | -28.79677 | 114.70325 | 113 ft | 3 kts | 225° |
| 2026-05-04 14:28 | -28.79688 | 114.70299 | 113 ft | 0 kts | 273° |
| 2026-05-04 14:29 | -28.79668 | 114.70285 | 112 ft | 0 kts | 4° |